Double Branches, Georgia
Current Conditions -  °F | °C
As of 10:15 PM on Tuesday 25 Nov 2014 (Local Time) from KHQU Reporting Station
Overcast Overcast  
Wind Chill: 50°   Ceiling: 3500
Heat Index: 50°   Visibility: 7mi
Dew Point: 50°   Wind: 6mph
Humidity: 100%   Direction: 310°NW
Pressure: 30.1"   Gusts: NA
Location:  33.7816°N, 82.4511°W
Report Text: KHQU 260315Z AUTO 31005KT 7SM BKN035 BKN042 OVC065 10/10 A3010 RMK AO1 T01000100
Loading
Personal Weather Stations






























Interactive Weather Map New forecast layout! Learn more

10-Day Weather Forecast

Advertisements
Track Severe Weather on mobile